Terminal Aerodrome Forecast
Issued by NWS

Home | Current Version | Previous Version | Text Only | Print | Product List | Glossary On
Versions: 1 2 3 4 5 6 7 8 9 10 11 12
371
FTUS42 KTAE 252320
TAFABY
TAF
KABY 252320Z 2600/2624 VRB03KT P6SM VCTS SCT040CB BKN250
      TEMPO 2600/2601 VRB15G25KT 3SM TSRA BKN020CB
     FM260100 09003KT P6SM BKN250
     FM261200 06003KT 2SM BR BKN007
     FM261400 08005KT P6SM SCT030=

USA.gov is the U.S. government's official web portal to all federal, state and local government web resources and services.